Time;durP1;ratioP1;P1;durP2;ratioP2;P2;SDS_P1;SDS_P2;PMS_P1;PMS_P2;Temp;Humidity;BMP_temperature;BMP_pressure;BME280_temperature;BME280_humidity;BME280_pressure;Samples;Min_cycle;Max_cycle;Signal;HPM_P1;HPM_P2
2022/04/30 00:00:09;;;;;;;;;;;12.10;87.60;;;;;;5021971;28;19917;-70
2022/04/30 00:02:34;;;;;;;;;;;12.10;87.80;;;;;;5021432;28;20366;-70
2022/04/30 00:05:00;;;;;;;;;;;12.20;88.50;;;;;;5022049;28;19910;-70
2022/04/30 00:07:26;;;;;;;;;;;12.10;89.20;;;;;;5022092;28;19910;-70
2022/04/30 00:09:52;;;;;;;;;;;12.10;89.70;;;;;;5023949;28;19984;-71
2022/04/30 00:12:17;;;;;;;;;;;12.00;90.00;;;;;;5024771;28;19991;-69
2022/04/30 00:14:44;;;;;;;;;;;11.90;90.40;;;;;;5021321;28;19992;-69
2022/04/30 00:17:10;;;;;;;;;;;12.00;90.50;;;;;;5022476;28;19929;-69
2022/04/30 00:19:36;;;;;;;;;;;11.90;90.60;;;;;;5022334;28;20023;-69
2022/04/30 00:22:02;;;;;;;;;;;11.80;90.80;;;;;;5021937;28;19916;-69
2022/04/30 00:24:28;;;;;;;;;;;11.70;90.80;;;;;;5021268;28;19941;-69
2022/04/30 00:26:59;;;;;;;;;;;11.70;91.10;;;;;;5020891;28;19913;-70
2022/04/30 00:29:26;;;;;;;;;;;11.70;91.10;;;;;;5021929;28;20128;-68
2022/04/30 00:31:52;;;;;;;;;;;11.70;91.00;;;;;;5020294;28;19920;-70
2022/04/30 00:34:18;;;;;;;;;;;11.70;90.90;;;;;;5020352;28;19921;-69
2022/04/30 00:36:44;;;;;;;;;;;11.80;90.70;;;;;;5021277;28;20181;-70
2022/04/30 00:39:09;;;;;;;;;;;11.70;90.80;;;;;;5021686;28;19917;-71
2022/04/30 00:41:36;;;;;;;;;;;11.70;91.00;;;;;;5021336;28;19909;-70
2022/04/30 00:44:02;;;;;;;;;;;11.60;91.20;;;;;;5020359;28;19910;-71
2022/04/30 00:46:28;;;;;;;;;;;11.70;91.10;;;;;;5020943;28;20280;-71
2022/04/30 00:48:54;;;;;;;;;;;11.70;91.30;;;;;;5021343;28;19909;-70
2022/04/30 00:51:21;;;;;;;;;;;11.60;91.50;;;;;;5021271;28;20240;-70
2022/04/30 00:53:48;;;;;;;;;;;11.60;91.70;;;;;;5020564;28;20116;-71
2022/04/30 00:56:14;;;;;;;;;;;11.50;92.00;;;;;;5020353;28;20220;-70
2022/04/30 00:58:41;;;;;;;;;;;11.50;91.90;;;;;;5021323;28;19917;-70
2022/04/30 01:01:07;;;;;;;;;;;11.50;92.10;;;;;;5021106;28;19948;-69
2022/04/30 01:03:32;;;;;;;;;;;11.40;92.20;;;;;;5021045;28;20343;-70
2022/04/30 01:06:01;;;;;;;;;;;11.40;92.30;;;;;;5021366;28;19917;-70
2022/04/30 01:08:27;;;;;;;;;;;11.50;92.20;;;;;;5019960;28;19917;-69
2022/04/30 01:10:56;;;;;;;;;;;11.40;92.30;;;;;;5020961;28;19972;-69
2022/04/30 01:13:22;;;;;;;;;;;11.40;92.30;;;;;;5019991;28;19972;-69
2022/04/30 01:15:50;;;;;;;;;;;11.50;92.00;;;;;;5019902;28;19917;-70
2022/04/30 01:18:16;;;;;;;;;;;11.50;91.80;;;;;;5020955;28;19916;-70
2022/04/30 01:20:46;;;;;;;;;;;11.50;91.40;;;;;;5020912;28;19989;-70
2022/04/30 01:23:12;;;;;;;;;;;11.50;91.50;;;;;;5019963;28;19932;-70
2022/04/30 01:25:38;;;;;;;;;;;11.50;91.60;;;;;;5019825;28;20227;-70
2022/04/30 01:28:04;;;;;;;;;;;11.40;91.70;;;;;;5019958;28;19909;-70
2022/04/30 01:30:30;;;;;;;;;;;11.40;92.00;;;;;;5020573;28;19944;-70
2022/04/30 01:38:24;;;;;;;;;;;11.30;92.10;;;;;;5080783;23;20026;-72
2022/04/30 01:40:50;;;;;;;;;;;11.20;92.20;;;;;;5081327;28;19909;-72
2022/04/30 01:43:16;;;;;;;;;;;11.20;92.20;;;;;;5085394;28;20143;-72
2022/04/30 01:45:44;;;;;;;;;;;11.30;92.30;;;;;;5085515;28;19908;-71
2022/04/30 01:48:13;;;;;;;;;;;11.20;92.60;;;;;;5077402;28;19909;-71
2022/04/30 01:50:40;;;;;;;;;;;11.30;92.40;;;;;;5075726;28;19930;-71
2022/04/30 01:53:06;;;;;;;;;;;11.30;92.40;;;;;;5085421;28;20134;-71
2022/04/30 01:55:31;;;;;;;;;;;11.30;92.50;;;;;;5084765;28;19916;-73
2022/04/30 01:57:57;;;;;;;;;;;11.30;92.50;;;;;;5086109;28;19916;-73
2022/04/30 02:00:23;;;;;;;;;;;11.30;92.20;;;;;;5085876;28;19908;-73
2022/04/30 02:02:49;;;;;;;;;;;11.30;92.30;;;;;;5085303;28;20260;-73
2022/04/30 02:05:15;;;;;;;;;;;11.30;91.90;;;;;;5064572;28;19908;-73
2022/04/30 02:07:49;;;;;;;;;;;11.40;91.80;;;;;;5073126;28;20167;-73
2022/04/30 02:10:14;;;;;;;;;;;11.40;91.50;;;;;;5083899;28;19913;-74
2022/04/30 02:12:40;;;;;;;;;;;11.40;91.20;;;;;;5084613;28;19979;-73
2022/04/30 02:15:08;;;;;;;;;;;11.30;91.50;;;;;;5067034;28;20120;-73
2022/04/30 02:17:36;;;;;;;;;;;11.40;91.70;;;;;;5067219;28;19913;-73
2022/04/30 02:22:47;;;;;;;;;;;11.40;91.80;;;;;;5043047;28;19991;-73
2022/04/30 02:25:13;;;;;;;;;;;11.30;91.90;;;;;;5043418;28;20212;-73
2022/04/30 02:27:40;;;;;;;;;;;11.30;92.00;;;;;;5044487;28;19916;-73
2022/04/30 02:30:07;;;;;;;;;;;11.20;92.00;;;;;;5044808;28;19909;-72
2022/04/30 02:32:49;;;;;;;;;;;11.10;92.00;;;;;;5044484;28;19967;-73
2022/04/30 02:35:16;;;;;;;;;;;11.00;92.50;;;;;;5045102;28;19909;-73
2022/04/30 02:37:45;;;;;;;;;;;11.00;92.90;;;;;;5043060;28;20331;-72
2022/04/30 02:40:15;;;;;;;;;;;11.10;93.20;;;;;;5043386;28;19950;-73
2022/04/30 02:42:41;;;;;;;;;;;11.00;93.20;;;;;;5043234;28;19916;-73
2022/04/30 02:45:09;;;;;;;;;;;10.90;93.20;;;;;;5044112;28;19921;-72
2022/04/30 02:47:38;;;;;;;;;;;10.90;93.10;;;;;;5043849;28;19917;-74
2022/04/30 02:50:06;;;;;;;;;;;10.90;92.90;;;;;;5045832;28;19909;-73
2022/04/30 02:52:32;;;;;;;;;;;10.90;92.50;;;;;;5045109;28;19913;-73
2022/04/30 02:54:57;;;;;;;;;;;10.70;92.70;;;;;;5045561;28;19917;-72
2022/04/30 02:57:23;;;;;;;;;;;10.80;92.50;;;;;;5063798;28;19946;-73
2022/04/30 02:59:54;;;;;;;;;;;10.80;92.30;;;;;;5078622;28;19908;-73
2022/04/30 03:02:21;;;;;;;;;;;10.80;92.10;;;;;;5084360;28;19931;-73
2022/04/30 03:04:51;;;;;;;;;;;10.80;92.40;;;;;;5083372;28;19950;-73
2022/04/30 03:07:21;;;;;;;;;;;10.70;92.30;;;;;;5043363;28;19909;-73
2022/04/30 03:09:47;;;;;;;;;;;10.60;92.70;;;;;;5044085;28;19956;-73
2022/04/30 03:12:14;;;;;;;;;;;10.60;93.20;;;;;;5043747;28;19920;-73
2022/04/30 03:14:41;;;;;;;;;;;10.50;93.50;;;;;;5042920;28;19913;-73
2022/04/30 03:22:35;;;;;;;;;;;10.50;93.60;;;;;;5028405;28;19996;-73
2022/04/30 03:25:01;;;;;;;;;;;10.50;93.50;;;;;;5043735;28;19909;-73
2022/04/30 03:27:26;;;;;;;;;;;10.50;93.60;;;;;;5043502;28;20104;-72
2022/04/30 03:29:52;;;;;;;;;;;10.60;93.60;;;;;;5043645;28;19917;-73
2022/04/30 03:32:20;;;;;;;;;;;10.60;93.70;;;;;;5043041;28;20270;-73
2022/04/30 03:34:46;;;;;;;;;;;10.60;93.90;;;;;;5044428;28;19909;-73
2022/04/30 03:37:13;;;;;;;;;;;10.50;93.90;;;;;;5044064;28;19924;-73
2022/04/30 03:39:39;;;;;;;;;;;10.50;93.70;;;;;;5043465;28;19944;-73
2022/04/30 03:42:05;;;;;;;;;;;10.50;93.60;;;;;;5043858;28;19948;-73
2022/04/30 03:44:31;;;;;;;;;;;10.50;93.70;;;;;;5044182;28;19916;-71
2022/04/30 03:46:57;;;;;;;;;;;10.40;93.80;;;;;;5043295;28;20217;-73
2022/04/30 03:49:23;;;;;;;;;;;10.40;93.80;;;;;;5042025;28;19922;-72
2022/04/30 03:51:48;;;;;;;;;;;10.30;93.80;;;;;;5042917;28;20116;-72
2022/04/30 03:54:14;;;;;;;;;;;10.30;93.70;;;;;;5042754;28;20205;-73
2022/04/30 03:56:40;;;;;;;;;;;10.30;93.90;;;;;;5042902;28;19909;-73
2022/04/30 03:59:06;;;;;;;;;;;10.30;93.80;;;;;;5043209;28;19909;-72
2022/04/30 04:01:34;;;;;;;;;;;10.30;93.70;;;;;;5041687;28;19924;-72
2022/04/30 04:04:00;;;;;;;;;;;10.30;93.70;;;;;;5043328;28;19909;-73
2022/04/30 04:06:26;;;;;;;;;;;10.30;93.40;;;;;;5042086;28;19947;-74
2022/04/30 04:08:52;;;;;;;;;;;10.30;93.30;;;;;;5041619;28;19915;-73
2022/04/30 04:11:18;;;;;;;;;;;10.40;93.00;;;;;;5041172;28;19917;-74
2022/04/30 04:19:13;;;;;;;;;;;10.20;92.50;;;;;;5042555;28;19981;-72
2022/04/30 04:21:38;;;;;;;;;;;10.20;92.40;;;;;;5042807;28;20112;-71
2022/04/30 04:26:49;;;;;;;;;;;10.20;92.30;;;;;;5042769;28;20219;-72
2022/04/30 04:29:16;;;;;;;;;;;10.20;92.30;;;;;;5042511;28;19909;-70
2022/04/30 04:31:44;;;;;;;;;;;10.30;92.10;;;;;;5024474;28;19972;-71
2022/04/30 04:34:11;;;;;;;;;;;10.30;91.80;;;;;;5042541;28;19909;-69
2022/04/30 04:36:37;;;;;;;;;;;10.30;91.80;;;;;;5041212;28;19909;-70
2022/04/30 04:39:15;;;;;;;;;;;10.30;91.80;;;;;;5041953;28;19987;-69
2022/04/30 04:41:44;;;;;;;;;;;10.40;91.80;;;;;;5025006;28;19909;-68
2022/04/30 04:44:10;;;;;;;;;;;10.40;92.00;;;;;;5025212;28;19956;-69
2022/04/30 04:46:37;;;;;;;;;;;10.40;92.10;;;;;;5041578;28;20202;-68
2022/04/30 04:49:04;;;;;;;;;;;10.50;92.20;;;;;;5041014;28;20088;-69
2022/04/30 04:51:30;;;;;;;;;;;10.60;92.00;;;;;;5042049;28;19915;-70
2022/04/30 04:53:55;;;;;;;;;;;10.60;91.80;;;;;;5040972;28;19957;-70
2022/04/30 04:56:22;;;;;;;;;;;10.50;91.80;;;;;;5042340;28;19932;-69
2022/04/30 04:58:48;;;;;;;;;;;10.60;91.80;;;;;;5041155;28;19916;-70
2022/04/30 05:01:14;;;;;;;;;;;10.60;91.60;;;;;;5040944;28;19979;-70
2022/04/30 05:03:39;;;;;;;;;;;10.70;91.80;;;;;;5042072;28;19917;-70
2022/04/30 05:06:05;;;;;;;;;;;10.80;92.30;;;;;;5043539;28;19944;-70
2022/04/30 05:08:31;;;;;;;;;;;10.80;91.80;;;;;;5044533;28;19909;-70
2022/04/30 05:10:56;;;;;;;;;;;10.80;91.60;;;;;;5045902;28;20263;-70
2022/04/30 05:13:22;;;;;;;;;;;10.80;91.60;;;;;;5046078;28;19921;-70
2022/04/30 05:15:48;;;;;;;;;;;10.80;91.60;;;;;;5045875;28;19935;-71
2022/04/30 05:18:13;;;;;;;;;;;11.00;91.50;;;;;;5062771;28;19913;-70
2022/04/30 05:20:40;;;;;;;;;;;11.20;91.20;;;;;;5054528;28;19976;-71
2022/04/30 05:23:05;;;;;;;;;;;11.30;90.90;;;;;;5073482;28;19940;-71
2022/04/30 05:25:31;;;;;;;;;;;11.40;90.30;;;;;;5067986;28;19990;-70
2022/04/30 05:27:57;;;;;;;;;;;11.50;90.20;;;;;;5075319;28;19947;-70
2022/04/30 05:30:23;;;;;;;;;;;11.60;89.60;;;;;;5057070;28;19909;-70
2022/04/30 05:32:49;;;;;;;;;;;11.70;90.10;;;;;;5044185;28;19935;-70
2022/04/30 05:35:15;;;;;;;;;;;11.70;90.20;;;;;;5071633;28;20207;-70
2022/04/30 05:37:40;;;;;;;;;;;11.80;90.40;;;;;;5085250;28;19948;-70
2022/04/30 05:40:07;;;;;;;;;;;11.80;90.50;;;;;;5086388;28;19975;-69
2022/04/30 05:42:32;;;;;;;;;;;11.90;90.40;;;;;;5085677;28;19916;-69
2022/04/30 05:44:59;;;;;;;;;;;11.90;90.50;;;;;;5085689;28;19915;-70
2022/04/30 05:47:25;;;;;;;;;;;11.90;90.30;;;;;;5085353;28;19909;-69
2022/04/30 05:49:50;;;;;;;;;;;12.00;90.30;;;;;;5064450;28;19954;-69
2022/04/30 05:52:19;;;;;;;;;;;12.00;90.00;;;;;;5065009;28;20112;-69
2022/04/30 05:54:45;;;;;;;;;;;12.00;89.50;;;;;;5065011;28;19909;-70
2022/04/30 05:57:11;;;;;;;;;;;12.00;89.70;;;;;;5065144;28;19915;-69
2022/04/30 05:59:36;;;;;;;;;;;12.00;89.80;;;;;;5062087;28;20061;-70
2022/04/30 06:02:02;;;;;;;;;;;12.00;89.30;;;;;;5044772;28;19917;-70
2022/04/30 06:04:28;;;;;;;;;;;12.10;89.10;;;;;;5049528;28;19921;-70
2022/04/30 06:06:54;;;;;;;;;;;12.10;88.80;;;;;;5072456;28;19951;-69
2022/04/30 06:09:20;;;;;;;;;;;12.20;88.20;;;;;;5075026;28;19908;-70
2022/04/30 06:11:47;;;;;;;;;;;12.20;87.90;;;;;;5073132;28;19909;-70
2022/04/30 06:14:13;;;;;;;;;;;12.30;88.50;;;;;;5081866;28;19916;-71
2022/04/30 06:16:39;;;;;;;;;;;12.30;88.70;;;;;;5085061;28;19953;-70
2022/04/30 06:19:04;;;;;;;;;;;12.50;88.40;;;;;;5084856;28;19916;-70
2022/04/30 06:21:31;;;;;;;;;;;12.60;87.80;;;;;;5083434;28;19916;-70
2022/04/30 06:23:57;;;;;;;;;;;12.80;87.00;;;;;;5084625;28;19946;-71
2022/04/30 06:26:22;;;;;;;;;;;13.00;86.10;;;;;;5084800;28;19920;-71
2022/04/30 06:28:48;;;;;;;;;;;13.20;86.10;;;;;;5083373;28;20173;-71
2022/04/30 06:31:14;;;;;;;;;;;13.30;86.60;;;;;;5051269;28;19975;-72
2022/04/30 06:33:39;;;;;;;;;;;13.30;86.90;;;;;;5044521;28;19928;-72
2022/04/30 06:36:05;;;;;;;;;;;13.60;84.60;;;;;;5044601;28;19916;-70
2022/04/30 06:38:32;;;;;;;;;;;13.60;84.40;;;;;;5026370;28;20112;-71
2022/04/30 06:40:58;;;;;;;;;;;13.70;83.90;;;;;;5026570;28;19917;-70
2022/04/30 06:43:24;;;;;;;;;;;13.70;84.60;;;;;;5044412;28;20430;-71
2022/04/30 06:45:49;;;;;;;;;;;13.80;84.20;;;;;;5044347;28;19921;-71
2022/04/30 06:48:15;;;;;;;;;;;13.80;84.00;;;;;;5044108;28;19925;-71
2022/04/30 06:50:41;;;;;;;;;;;13.80;82.80;;;;;;5044124;28;20215;-71
2022/04/30 06:58:44;;;;;;;;;;;13.90;83.00;;;;;;5044021;28;19915;-71
2022/04/30 07:04:01;;;;;;;;;;;14.00;82.10;;;;;;5043149;28;19948;-71
2022/04/30 07:06:29;;;;;;;;;;;14.10;81.10;;;;;;5044192;28;19990;-71
2022/04/30 07:08:55;;;;;;;;;;;14.10;80.70;;;;;;5042361;28;20215;-71
2022/04/30 07:11:20;;;;;;;;;;;14.10;79.50;;;;;;5043416;28;19972;-71
2022/04/30 07:13:46;;;;;;;;;;;14.10;80.10;;;;;;5042444;28;19952;-71
2022/04/30 07:16:12;;;;;;;;;;;14.10;80.10;;;;;;5042727;28;20204;-72
2022/04/30 07:18:38;;;;;;;;;;;14.10;78.90;;;;;;5043563;28;19909;-71
2022/04/30 07:21:04;;;;;;;;;;;14.10;79.50;;;;;;5043526;28;19955;-70
2022/04/30 07:23:30;;;;;;;;;;;14.10;79.70;;;;;;5046032;28;19912;-71
2022/04/30 07:25:56;;;;;;;;;;;14.10;78.80;;;;;;5036128;28;19968;-72
2022/04/30 07:28:26;;;;;;;;;;;14.10;77.70;;;;;;5051146;28;19963;-74
2022/04/30 07:30:52;;;;;;;;;;;14.00;77.90;;;;;;5045311;28;19917;-69
2022/04/30 07:33:18;;;;;;;;;;;14.00;78.90;;;;;;5043359;28;20112;-69
2022/04/30 07:35:43;;;;;;;;;;;14.00;78.50;;;;;;5041944;28;19913;-69
2022/04/30 07:38:09;;;;;;;;;;;14.00;77.80;;;;;;5042606;28;19913;-69
2022/04/30 07:40:38;;;;;;;;;;;14.10;76.80;;;;;;5041645;28;19936;-69
2022/04/30 07:43:04;;;;;;;;;;;14.10;78.00;;;;;;5042987;28;19909;-69
2022/04/30 07:45:29;;;;;;;;;;;14.20;77.10;;;;;;5042904;28;19948;-69
2022/04/30 07:47:55;;;;;;;;;;;14.40;77.10;;;;;;5042788;28;19959;-69
2022/04/30 07:50:22;;;;;;;;;;;14.40;76.90;;;;;;5042746;28;20208;-69
2022/04/30 07:52:48;;;;;;;;;;;14.60;76.40;;;;;;5042003;28;19921;-69
2022/04/30 07:55:14;;;;;;;;;;;14.60;76.50;;;;;;5041460;28;19909;-69
2022/04/30 07:57:40;;;;;;;;;;;14.70;74.90;;;;;;5042501;28;20192;-66
2022/04/30 08:00:07;;;;;;;;;;;14.90;75.30;;;;;;5042498;28;19916;-68
2022/04/30 08:02:33;;;;;;;;;;;15.10;74.10;;;;;;5042305;28;19933;-68
2022/04/30 08:05:02;;;;;;;;;;;15.20;71.70;;;;;;5041415;28;20089;-68
2022/04/30 08:07:28;;;;;;;;;;;15.20;72.90;;;;;;5042366;28;20004;-68
2022/04/30 08:09:53;;;;;;;;;;;15.30;72.50;;;;;;5042344;28;19984;-68
2022/04/30 08:12:20;;;;;;;;;;;15.30;71.80;;;;;;5042110;28;19959;-68
2022/04/30 08:14:47;;;;;;;;;;;15.40;71.80;;;;;;5042659;28;19909;-68
2022/04/30 08:17:13;;;;;;;;;;;15.50;70.70;;;;;;5042617;28;19983;-68
2022/04/30 08:19:39;;;;;;;;;;;15.90;66.30;;;;;;5042397;28;20227;-68
2022/04/30 08:22:05;;;;;;;;;;;16.10;68.10;;;;;;5042138;28;19944;-68
2022/04/30 08:24:32;;;;;;;;;;;16.20;68.40;;;;;;5041937;28;20231;-68
2022/04/30 08:26:59;;;;;;;;;;;16.50;66.00;;;;;;5042367;28;19922;-68
2022/04/30 08:29:28;;;;;;;;;;;16.70;64.10;;;;;;5042263;28;19916;-68
2022/04/30 08:31:54;;;;;;;;;;;16.90;62.60;;;;;;5042038;28;19909;-68
2022/04/30 08:34:20;;;;;;;;;;;17.10;61.40;;;;;;5042428;28;19909;-68
2022/04/30 08:36:45;;;;;;;;;;;16.90;64.80;;;;;;5049386;28;19920;-67
2022/04/30 08:39:11;;;;;;;;;;;16.90;62.80;;;;;;5069936;28;19959;-67
2022/04/30 08:41:38;;;;;;;;;;;17.00;63.40;;;;;;5072462;28;19920;-69
2022/04/30 08:44:04;;;;;;;;;;;17.20;61.50;;;;;;5076737;28;20152;-70
2022/04/30 08:46:29;;;;;;;;;;;17.50;59.50;;;;;;5075165;28;19908;-68
2022/04/30 08:48:55;;;;;;;;;;;17.50;58.40;;;;;;5066094;28;20143;-69
2022/04/30 08:51:21;;;;;;;;;;;17.90;55.60;;;;;;5069721;28;19958;-68
2022/04/30 08:53:46;;;;;;;;;;;17.80;52.70;;;;;;5079241;28;19912;-69
2022/04/30 08:56:12;;;;;;;;;;;17.70;54.90;;;;;;5085832;28;20096;-69
2022/04/30 08:58:38;;;;;;;;;;;17.80;54.20;;;;;;5086027;28;19968;-69
2022/04/30 09:01:04;;;;;;;;;;;17.80;54.80;;;;;;5055561;28;19916;-69
2022/04/30 09:03:34;;;;;;;;;;;17.70;52.60;;;;;;5045789;28;19909;-69
2022/04/30 09:06:00;;;;;;;;;;;17.70;53.20;;;;;;5045929;28;20275;-69
2022/04/30 09:08:26;;;;;;;;;;;17.50;55.30;;;;;;5044446;28;19909;-69
2022/04/30 09:10:52;;;;;;;;;;;17.40;54.70;;;;;;5045434;28;20182;-69
2022/04/30 09:13:18;;;;;;;;;;;17.30;52.00;;;;;;5045699;28;19921;-69
2022/04/30 09:15:45;;;;;;;;;;;17.30;52.70;;;;;;5045611;28;19916;-69
2022/04/30 09:18:12;;;;;;;;;;;17.40;52.50;;;;;;5045389;28;19938;-67
2022/04/30 09:20:47;;;;;;;;;;;17.40;52.50;;;;;;5045320;28;19963;-67
2022/04/30 09:23:31;;;;;;;;;;;17.60;52.60;;;;;;5045435;28;19924;-67
2022/04/30 09:25:58;;;;;;;;;;;17.80;52.00;;;;;;5045396;28;19917;-69
2022/04/30 09:28:28;;;;;;;;;;;18.00;50.90;;;;;;5045099;28;19910;-69
2022/04/30 09:31:03;;;;;;;;;;;18.20;51.60;;;;;;5045043;28;19909;-68
2022/04/30 09:33:29;;;;;;;;;;;18.60;53.40;;;;;;5045546;28;19963;-68
2022/04/30 09:38:48;;;;;;;;;;;18.70;51.10;;;;;;5044883;28;19932;-68
2022/04/30 09:41:13;;;;;;;;;;;18.80;51.10;;;;;;5044963;28;19909;-68
2022/04/30 09:43:39;;;;;;;;;;;18.90;51.40;;;;;;5045338;28;19909;-68
2022/04/30 09:46:06;;;;;;;;;;;19.00;49.80;;;;;;5045154;28;19909;-68
2022/04/30 09:54:00;;;;;;;;;;;19.30;49.50;;;;;;5044763;28;19920;-68
2022/04/30 09:56:37;;;;;;;;;;;19.50;49.50;;;;;;5044927;28;20406;-68
2022/04/30 09:59:06;;;;;;;;;;;19.60;49.00;;;;;;5044898;28;19917;-68
2022/04/30 10:01:34;;;;;;;;;;;19.60;48.60;;;;;;5057819;28;19948;-68
2022/04/30 10:04:05;;;;;;;;;;;19.70;47.40;;;;;;5076226;28;19971;-68
2022/04/30 10:06:30;;;;;;;;;;;19.70;47.90;;;;;;5065019;28;19940;-67
2022/04/30 10:08:56;;;;;;;;;;;19.60;47.00;;;;;;5058130;28;19908;-69
2022/04/30 10:11:33;;;;;;;;;;;19.70;47.60;;;;;;5083354;28;19916;-68
2022/04/30 10:14:08;;;;;;;;;;;19.90;48.50;;;;;;5067175;28;19912;-68
2022/04/30 10:16:34;;;;;;;;;;;20.00;47.90;;;;;;5083388;28;19909;-68
2022/04/30 10:19:16;;;;;;;;;;;20.10;48.80;;;;;;5083414;28;19908;-68
2022/04/30 10:21:42;;;;;;;;;;;20.10;49.50;;;;;;5084188;28;19970;-68
2022/04/30 10:24:12;;;;;;;;;;;20.50;46.60;;;;;;5084087;28;19908;-68
2022/04/30 10:26:38;;;;;;;;;;;20.50;45.50;;;;;;5083385;28;19954;-68
2022/04/30 10:29:11;;;;;;;;;;;20.70;46.30;;;;;;5084165;28;20146;-68
2022/04/30 10:31:46;;;;;;;;;;;20.80;45.50;;;;;;5044669;28;19916;-68
2022/04/30 10:34:11;;;;;;;;;;;20.80;45.10;;;;;;5043220;28;19913;-68
2022/04/30 10:36:38;;;;;;;;;;;20.70;45.10;;;;;;5044300;28;20250;-68
2022/04/30 10:39:09;;;;;;;;;;;20.70;44.60;;;;;;5043772;28;19955;-68
2022/04/30 10:41:49;;;;;;;;;;;20.70;45.20;;;;;;5043797;28;19944;-69
2022/04/30 10:44:15;;;;;;;;;;;20.70;44.00;;;;;;5044094;28;20002;-71
2022/04/30 10:46:45;;;;;;;;;;;20.60;44.00;;;;;;5042797;28;19913;-71
2022/04/30 10:49:11;;;;;;;;;;;20.40;44.20;;;;;;5042863;28;20203;-72
2022/04/30 10:51:38;;;;;;;;;;;20.50;45.00;;;;;;5043778;28;19946;-70
2022/04/30 10:54:08;;;;;;;;;;;20.30;44.80;;;;;;5043561;28;20020;-70
2022/04/30 10:56:33;;;;;;;;;;;20.50;44.70;;;;;;5042772;28;20131;-70
2022/04/30 10:58:59;;;;;;;;;;;20.40;45.00;;;;;;5043735;28;19932;-70
2022/04/30 11:01:25;;;;;;;;;;;20.40;44.40;;;;;;5043478;28;19913;-71
2022/04/30 11:03:50;;;;;;;;;;;20.40;45.20;;;;;;5042841;28;19940;-72
2022/04/30 11:06:23;;;;;;;;;;;20.50;45.20;;;;;;5043689;28;19973;-71
2022/04/30 11:09:00;;;;;;;;;;;20.70;44.00;;;;;;5043454;28;20104;-71
2022/04/30 11:11:26;;;;;;;;;;;20.80;43.80;;;;;;5043409;28;19932;-71
2022/04/30 11:14:10;;;;;;;;;;;20.60;42.40;;;;;;5043475;28;19928;-71
2022/04/30 11:16:41;;;;;;;;;;;20.50;43.00;;;;;;5025882;28;19909;-71
2022/04/30 11:19:10;;;;;;;;;;;20.60;43.00;;;;;;5043205;28;19924;-72
2022/04/30 11:21:44;;;;;;;;;;;20.70;43.30;;;;;;5042121;28;19909;-71
2022/04/30 11:24:10;;;;;;;;;;;20.80;44.30;;;;;;5025597;28;19913;-71
2022/04/30 11:26:39;;;;;;;;;;;21.00;43.30;;;;;;5042146;28;19909;-71
2022/04/30 11:29:09;;;;;;;;;;;21.00;42.70;;;;;;5042024;28;19963;-71
2022/04/30 11:31:35;;;;;;;;;;;21.20;43.10;;;;;;5042757;28;19917;-72
2022/04/30 11:34:15;;;;;;;;;;;21.40;43.20;;;;;;5043144;28;19979;-71
2022/04/30 11:36:47;;;;;;;;;;;21.30;43.70;;;;;;5043181;28;20292;-72
2022/04/30 11:39:13;;;;;;;;;;;21.40;45.10;;;;;;5042769;28;19921;-71
2022/04/30 11:41:43;;;;;;;;;;;21.50;44.20;;;;;;5042764;28;19939;-72
2022/04/30 11:44:12;;;;;;;;;;;21.80;43.20;;;;;;5041742;28;20208;-72
2022/04/30 11:46:42;;;;;;;;;;;21.90;43.10;;;;;;5041804;28;19921;-72
2022/04/30 11:49:09;;;;;;;;;;;21.90;42.90;;;;;;5053075;28;19916;-72
2022/04/30 11:51:35;;;;;;;;;;;22.00;43.80;;;;;;5062517;28;19908;-71
2022/04/30 11:54:04;;;;;;;;;;;22.00;44.00;;;;;;5061416;28;20114;-72
2022/04/30 11:56:32;;;;;;;;;;;22.00;43.80;;;;;;5062631;28;20173;-71
2022/04/30 11:58:58;;;;;;;;;;;22.20;43.40;;;;;;5062641;28;19921;-72
2022/04/30 12:01:25;;;;;;;;;;;22.20;44.00;;;;;;5044510;28;19975;-71
2022/04/30 12:04:14;;;;;;;;;;;22.30;43.10;;;;;;5042850;28;19909;-71
2022/04/30 12:06:43;;;;;;;;;;;22.30;42.60;;;;;;5041557;28;19924;-72
2022/04/30 12:09:17;;;;;;;;;;;22.70;44.00;;;;;;5042492;28;19909;-71
2022/04/30 12:11:43;;;;;;;;;;;23.10;43.50;;;;;;5042540;28;19924;-69
2022/04/30 12:14:09;;;;;;;;;;;23.50;41.50;;;;;;5042685;28;19917;-69
2022/04/30 12:16:36;;;;;;;;;;;23.40;40.90;;;;;;5042503;28;19936;-69
2022/04/30 12:24:45;;;;;;;;;;;22.60;39.20;;;;;;5042275;28;20226;-69
2022/04/30 12:27:21;;;;;;;;;;;22.00;40.50;;;;;;5042239;28;19976;-70
2022/04/30 12:29:47;;;;;;;;;;;21.50;41.80;;;;;;5043762;28;20001;-67
2022/04/30 12:32:17;;;;;;;;;;;21.00;43.70;;;;;;5052912;28;19939;-68
2022/04/30 12:34:42;;;;;;;;;;;20.70;43.80;;;;;;5062077;28;20123;-69
2022/04/30 12:37:08;;;;;;;;;;;20.40;46.20;;;;;;5061938;28;19925;-68
2022/04/30 12:39:35;;;;;;;;;;;19.90;48.10;;;;;;5061890;28;20227;-68
2022/04/30 12:42:01;;;;;;;;;;;19.40;50.30;;;;;;5060624;28;19936;-68
2022/04/30 12:44:27;;;;;;;;;;;18.80;51.20;;;;;;5061809;28;20330;-69
2022/04/30 12:46:53;;;;;;;;;;;18.50;53.20;;;;;;5060926;28;19916;-69
2022/04/30 12:49:19;;;;;;;;;;;18.10;55.50;;;;;;5062046;28;19908;-69
2022/04/30 12:51:46;;;;;;;;;;;17.80;58.00;;;;;;5061689;28;19909;-69
2022/04/30 12:54:13;;;;;;;;;;;17.60;60.70;;;;;;5027768;28;19928;-71
2022/04/30 12:56:40;;;;;;;;;;;17.40;63.80;;;;;;5046427;28;19909;-77
2022/04/30 12:59:06;;;;;;;;;;;17.30;62.40;;;;;;5040499;28;19924;-69
2022/04/30 13:01:34;;;;;;;;;;;17.30;60.30;;;;;;5040360;28;19909;-70
2022/04/30 13:04:01;;;;;;;;;;;17.10;60.20;;;;;;5041975;28;20200;-70
2022/04/30 13:06:26;;;;;;;;;;;17.10;62.10;;;;;;5041632;28;19909;-70
2022/04/30 13:14:20;;;;;;;;;;;17.20;61.80;;;;;;5041657;28;19920;-71
2022/04/30 13:16:48;;;;;;;;;;;17.30;63.20;;;;;;5041825;28;19940;-70
2022/04/30 13:19:14;;;;;;;;;;;17.30;63.20;;;;;;5041065;28;19913;-71
2022/04/30 13:21:40;;;;;;;;;;;17.40;63.20;;;;;;5041467;28;19955;-71
2022/04/30 13:24:07;;;;;;;;;;;17.50;63.10;;;;;;5041559;28;19916;-71
2022/04/30 13:26:32;;;;;;;;;;;17.50;64.80;;;;;;5041995;28;19917;-76
2022/04/30 13:28:58;;;;;;;;;;;17.70;63.90;;;;;;5045198;28;20104;-73
2022/04/30 13:31:24;;;;;;;;;;;17.70;64.60;;;;;;5045047;28;19913;-73
2022/04/30 13:33:49;;;;;;;;;;;17.50;64.80;;;;;;5054589;28;20151;-68
2022/04/30 13:36:15;;;;;;;;;;;17.50;64.90;;;;;;5065146;28;19908;-69
2022/04/30 13:38:42;;;;;;;;;;;17.60;63.50;;;;;;5064654;28;19997;-71
2022/04/30 13:41:11;;;;;;;;;;;17.70;63.50;;;;;;5064900;28;19917;-72
2022/04/30 13:43:36;;;;;;;;;;;17.70;62.90;;;;;;5065323;28;19908;-72
2022/04/30 13:46:02;;;;;;;;;;;17.80;63.00;;;;;;5063855;28;19924;-69
2022/04/30 13:48:28;;;;;;;;;;;17.80;60.80;;;;;;5065007;28;19916;-75
2022/04/30 13:50:54;;;;;;;;;;;17.80;58.30;;;;;;5064440;28;19944;-73
2022/04/30 13:53:20;;;;;;;;;;;17.60;60.10;;;;;;5065046;28;20215;-73
2022/04/30 13:55:46;;;;;;;;;;;17.30;62.60;;;;;;5064833;28;19908;-74
2022/04/30 13:58:13;;;;;;;;;;;17.20;63.60;;;;;;5046996;28;20213;-74
2022/04/30 14:00:39;;;;;;;;;;;17.20;64.60;;;;;;5061194;28;19917;-74
2022/04/30 14:03:05;;;;;;;;;;;17.20;64.80;;;;;;5044619;28;19909;-74
2022/04/30 14:05:32;;;;;;;;;;;17.10;65.20;;;;;;5044779;28;19950;-74
2022/04/30 14:07:57;;;;;;;;;;;17.20;65.30;;;;;;5027200;28;19924;-74
2022/04/30 14:10:26;;;;;;;;;;;17.00;66.20;;;;;;5044376;28;19909;-71
2022/04/30 14:12:53;;;;;;;;;;;16.90;67.50;;;;;;5046847;28;19958;-80
2022/04/30 14:15:19;;;;;;;;;;;16.90;66.60;;;;;;5047696;28;19909;-80
2022/04/30 14:20:29;;;;;;;;;;;16.70;65.70;;;;;;5051896;28;19919;-71
2022/04/30 14:22:55;;;;;;;;;;;16.50;65.50;;;;;;5064332;28;20200;-72
2022/04/30 14:25:22;;;;;;;;;;;16.30;66.40;;;;;;5064197;28;20211;-73
2022/04/30 14:27:48;;;;;;;;;;;16.10;67.20;;;;;;5063985;28;20246;-72
2022/04/30 14:30:14;;;;;;;;;;;15.90;68.50;;;;;;5064137;28;19972;-73
2022/04/30 14:32:41;;;;;;;;;;;15.90;69.10;;;;;;5043403;28;20200;-71
2022/04/30 14:35:07;;;;;;;;;;;15.90;69.00;;;;;;5044263;28;20333;-72
2022/04/30 14:37:35;;;;;;;;;;;15.80;70.30;;;;;;5026239;28;20278;-73
2022/04/30 14:40:02;;;;;;;;;;;15.90;70.20;;;;;;5043777;28;19951;-72
2022/04/30 14:42:28;;;;;;;;;;;15.80;70.50;;;;;;5043592;28;19917;-72
2022/04/30 14:44:53;;;;;;;;;;;15.70;70.70;;;;;;5042932;28;20089;-72
2022/04/30 14:47:19;;;;;;;;;;;15.60;72.90;;;;;;5043806;28;20274;-72
2022/04/30 14:49:46;;;;;;;;;;;15.70;76.10;;;;;;5052280;28;19920;-72
2022/04/30 14:52:11;;;;;;;;;;;15.80;77.30;;;;;;5061515;28;19917;-72
2022/04/30 14:54:37;;;;;;;;;;;15.90;75.30;;;;;;5046408;28;20116;-73
2022/04/30 14:57:03;;;;;;;;;;;16.00;75.20;;;;;;5059881;28;19913;-72
2022/04/30 14:59:29;;;;;;;;;;;16.10;74.90;;;;;;5048735;28;19951;-72
2022/04/30 15:01:55;;;;;;;;;;;16.20;73.40;;;;;;5057289;28;19921;-73
2022/04/30 15:04:21;;;;;;;;;;;16.40;72.90;;;;;;5048543;28;19913;-69
2022/04/30 15:06:47;;;;;;;;;;;16.50;72.90;;;;;;5059814;28;19908;-71